Glorysun — V7NS9 — position and weather

sailwx.info

Track history (hours):
 
Tides and Currents Weather Stations Pressure Air Temp Water Temp Dewpoint Dewpoint Depression Visibility Wind Speed Wind Dir Waves Ship Positions

Glorysun

Last reported at 2018-Feb-19 05:53 UTC. Time now 2018-Feb-24 15:34 UTC.
Position N 44°48' E 012°49'.

Length 234 m; draft 8.4 m.

Type: Cargo ship. MMSI: 538003012.

Date/timePositionNaut miles runAvg speedWind from/ knotsBaromVisibWave heightAir tempDewpointWater temp
2018-Feb-19 05:53N 44°48' E 012°49'712.9
2018-Feb-19 05:20N 44°50' E 012°59'412.2
2018-Feb-19 05:00N 44°47' E 013°02'1313.1
2018-Feb-19 04:02N 44°35' E 013°07'35412.8
2018-Feb-18 00:16N 40°19' E 018°39'413.7
2018-Feb-18 00:00N 40°15' E 018°40'913.6
2018-Feb-17 23:22N 40°07' E 018°41'612.8
2018-Feb-17 22:54N 40°01' E 018°41'512.8
2018-Feb-17 22:30N 39°56' E 018°40'713.4
2018-Feb-17 22:00N 39°49' E 018°37'813.0
2018-Feb-17 21:24N 39°42' E 018°32'1512.7
2018-Feb-17 20:15N 39°31' E 018°19'712.7
2018-Feb-17 19:41N 39°27' E 018°13'412.9
2018-Feb-17 19:25N 39°24' E 018°09'613.4
2018-Feb-17 19:00N 39°20' E 018°04'1013.5
2018-Feb-17 18:18N 39°14' E 017°55'1013.2
2018-Feb-17 17:32N 39°07' E 017°46'113.1
2018-Feb-17 17:30N 39°07' E 017°45'713.1
2018-Feb-17 16:58N 39°02' E 017°39'613.0
2018-Feb-17 16:30N 38°58' E 017°33'10113.0
2018-Feb-17 08:40N 37°50' E 015°57'512.9
2018-Feb-17 08:16N 37°49' E 015°50'312.9
2018-Feb-17 08:00N 37°49' E 015°46'1411.7
2018-Feb-17 06:46N 37°59' E 015°32'413.6
2018-Feb-17 06:29N 38°02' E 015°33'713.5
2018-Feb-17 06:00N 38°09' E 015°35'611.7
2018-Feb-17 05:30N 38°15' E 015°37'5 9.7
2018-Feb-17 05:00N 38°18' E 015°41'612.7
2018-Feb-17 04:30N 38°25' E 015°40'713.0
2018-Feb-17 04:00N 38°30' E 015°37'713.2
2018-Feb-17 03:30N 38°36' E 015°32'713.1
2018-Feb-17 02:57N 38°43' E 015°30'613.0
2018-Feb-17 02:30N 38°49' E 015°27'3813.2
2018-Feb-16 23:36N 39°21' E 015°01'213.5
2018-Feb-16 23:29N 39°23' E 015°00'8112.6
2018-Feb-16 17:01N 40°34' E 014°09'013.6
2018-Feb-16 17:00N 40°34' E 014°09'613.1
2018-Feb-16 16:30N 40°40' E 014°13'613.0
2018-Feb-16 16:00N 40°46' E 014°16'5 0.2
2018-Feb-15 13:28N 40°50' E 014°17'2 3.0
2018-Feb-15 12:53N 40°49' E 014°17'2 5.0
2018-Feb-15 12:30N 40°47' E 014°17'4 8.0
2018-Feb-15 12:00N 40°43' E 014°14'612.5
2018-Feb-15 11:30N 40°38' E 014°11'2612.6
2018-Feb-15 09:26N 40°12' E 014°18'5313.4
2018-Feb-15 05:30N 39°28' E 014°56'712.9
2018-Feb-15 04:59N 39°22' E 015°01'5712.7
2018-Feb-15 00:30N 38°32' E 015°36'613.0
2018-Feb-15 00:01N 38°26' E 015°40'612.8
2018-Feb-14 23:31N 38°20' E 015°42'611.1
2018-Feb-14 22:58N 38°15' E 015°39'511.2
2018-Feb-14 22:30N 38°10' E 015°36'712.7
2018-Feb-14 21:59N 38°04' E 015°35'613.1
2018-Feb-14 21:30N 37°57' E 015°35'713.0
2018-Feb-14 20:59N 37°52' E 015°39'612.5
2018-Feb-14 20:30N 37°50' E 015°46'713.3
2018-Feb-14 20:00N 37°51' E 015°55'16813.0
2018-Feb-14 07:04N 39°45' E 018°33'113.5
2018-Feb-14 07:01N 39°45' E 018°34'713.7
2018-Feb-14 06:31N 39°52' E 018°37'714.2
2018-Feb-14 06:00N 39°58' E 018°40'  
2018-Feb-10 12:11N 39°58' E 018°56'712.6
2018-Feb-10 11:36N 39°51' E 018°59'112.8
2018-Feb-10 11:30N 39°49' E 018°59'  
Track history (hours):
 
Tides and Currents Weather Stations Pressure Air Temp Water Temp Dewpoint Dewpoint Depression Visibility Wind Speed Wind Dir Waves Ship Positions

Glorysun

Last reported at 2018-Feb-19 05:53 UTC. Time now 2018-Feb-24 15:34 UTC.
Position N 44°48' E 012°49'.

Length 234 m; draft 8.4 m.

Type: Cargo ship. MMSI: 538003012.

Date/timePositionNaut miles runAvg speedWind from/ knotsBaromVisibWave heightAir tempDewpointWater temp
2018-Feb-19 05:53N 44°48' E 012°49'712.9
2018-Feb-19 05:20N 44°50' E 012°59'412.2
2018-Feb-19 05:00N 44°47' E 013°02'1313.1
2018-Feb-19 04:02N 44°35' E 013°07'35412.8
2018-Feb-18 00:16N 40°19' E 018°39'413.7
2018-Feb-18 00:00N 40°15' E 018°40'913.6
2018-Feb-17 23:22N 40°07' E 018°41'612.8
2018-Feb-17 22:54N 40°01' E 018°41'512.8
2018-Feb-17 22:30N 39°56' E 018°40'713.4
2018-Feb-17 22:00N 39°49' E 018°37'813.0
2018-Feb-17 21:24N 39°42' E 018°32'1512.7
2018-Feb-17 20:15N 39°31' E 018°19'712.7
2018-Feb-17 19:41N 39°27' E 018°13'412.9
2018-Feb-17 19:25N 39°24' E 018°09'613.4
2018-Feb-17 19:00N 39°20' E 018°04'1013.5
2018-Feb-17 18:18N 39°14' E 017°55'1013.2
2018-Feb-17 17:32N 39°07' E 017°46'113.1
2018-Feb-17 17:30N 39°07' E 017°45'713.1
2018-Feb-17 16:58N 39°02' E 017°39'613.0
2018-Feb-17 16:30N 38°58' E 017°33'10113.0
2018-Feb-17 08:40N 37°50' E 015°57'512.9
2018-Feb-17 08:16N 37°49' E 015°50'312.9
2018-Feb-17 08:00N 37°49' E 015°46'1411.7
2018-Feb-17 06:46N 37°59' E 015°32'413.6
2018-Feb-17 06:29N 38°02' E 015°33'713.5
2018-Feb-17 06:00N 38°09' E 015°35'611.7
2018-Feb-17 05:30N 38°15' E 015°37'5 9.7
2018-Feb-17 05:00N 38°18' E 015°41'612.7
2018-Feb-17 04:30N 38°25' E 015°40'713.0
2018-Feb-17 04:00N 38°30' E 015°37'713.2
2018-Feb-17 03:30N 38°36' E 015°32'713.1
2018-Feb-17 02:57N 38°43' E 015°30'613.0
2018-Feb-17 02:30N 38°49' E 015°27'3813.2
2018-Feb-16 23:36N 39°21' E 015°01'213.5
2018-Feb-16 23:29N 39°23' E 015°00'8112.6
2018-Feb-16 17:01N 40°34' E 014°09'013.6
2018-Feb-16 17:00N 40°34' E 014°09'613.1
2018-Feb-16 16:30N 40°40' E 014°13'613.0
2018-Feb-16 16:00N 40°46' E 014°16'5 0.2
2018-Feb-15 13:28N 40°50' E 014°17'2 3.0
2018-Feb-15 12:53N 40°49' E 014°17'2 5.0
2018-Feb-15 12:30N 40°47' E 014°17'4 8.0
2018-Feb-15 12:00N 40°43' E 014°14'612.5
2018-Feb-15 11:30N 40°38' E 014°11'2612.6
2018-Feb-15 09:26N 40°12' E 014°18'5313.4
2018-Feb-15 05:30N 39°28' E 014°56'712.9
2018-Feb-15 04:59N 39°22' E 015°01'5712.7
2018-Feb-15 00:30N 38°32' E 015°36'613.0
2018-Feb-15 00:01N 38°26' E 015°40'612.8
2018-Feb-14 23:31N 38°20' E 015°42'611.1
2018-Feb-14 22:58N 38°15' E 015°39'511.2
2018-Feb-14 22:30N 38°10' E 015°36'712.7
2018-Feb-14 21:59N 38°04' E 015°35'613.1
2018-Feb-14 21:30N 37°57' E 015°35'713.0
2018-Feb-14 20:59N 37°52' E 015°39'612.5
2018-Feb-14 20:30N 37°50' E 015°46'713.3
2018-Feb-14 20:00N 37°51' E 015°55'16813.0
2018-Feb-14 07:04N 39°45' E 018°33'113.5
2018-Feb-14 07:01N 39°45' E 018°34'713.7
2018-Feb-14 06:31N 39°52' E 018°37'714.2
2018-Feb-14 06:00N 39°58' E 018°40'  
2018-Feb-10 12:11N 39°58' E 018°56'712.6
2018-Feb-10 11:36N 39°51' E 018°59'112.8
2018-Feb-10 11:30N 39°49' E 018°59'  

Dump ship's entire track history